Pagrindinis puslapis
METAR-TAF:

METAR-TAF

Oro uostai :

Volisas, Prancūzija

platuma: 13-14S, ilguma: 176-10W, Aukštis: 23 m

Dabartinis oras

Ataskaita buvo paskelbta 42 minutes, ne 09:00 UTC
Vėjas 2 kt nuo kintamojo kryptimis
Temperatūra 28°C
Drėgmė 84%
Slėgis 1009 hPa
Matomumas 10 km arba daugiau

METAR: NLWW 290900Z AUTO VRB02KT 9999 NCD 28/25 Q1009 NOSIG

Laikas: 21:42 (09:42 UTC)

Prognozė

Ataskaita buvo paskelbta 4 valandos ir 42 minutes, ne 05:00 UTC
Prognozė galioja nuo 29 metu 06 UTC su 01 metu 06 UTC
Vėjas 8 kt iš Pietų/Pietryčių
Matomumas 10 km arba daugiau
Išsisklaidę debesys ne aukštis 2100 ft
Su prošvaistėmis ne aukštis 13000 ft

TAF: NLWW 290500Z 2906/0106 16008KT 9999 SCT021 BKN130

Orai ataskaitas ir orų prognozės (METAR, TAF).

turimą stotys yra geltonos ir raudonos taškus žemėlapyje.

Perkelti pele per norėdami pamatyti stoties vardą.

Tada spustelėkite, norėdami matyti oro stebėjimo ir prognozės.

Norėdami pakeisti žemėlapį: spustelėkite ant žalios mygtukų su juodo kryžiaus žemyn,; žalią mygtuką su brūkšneliu, jei norite nutolinti; arba žalių rodyklių gretimoms žemėlapius.


METAR-TAF: